createdAt,value
2022-09-22T00:00:50.824Z,5.3
2022-09-22T00:02:50.723Z,5.3
2022-09-22T00:04:49.944Z,5.3
2022-09-22T00:06:50.234Z,5.3
2022-09-22T00:08:50.041Z,5.3
2022-09-22T00:10:50.735Z,5.3
2022-09-22T00:12:50.509Z,5.3
2022-09-22T00:14:50.256Z,5.3
2022-09-22T00:16:50.588Z,5.2
2022-09-22T00:18:50.402Z,5.2
2022-09-22T00:20:50.141Z,5.2
2022-09-22T00:22:50.922Z,5.2
2022-09-22T00:24:50.625Z,5.1
2022-09-22T00:26:50.731Z,5.1
2022-09-22T00:28:50.812Z,5.1
2022-09-22T00:30:50.705Z,5.1
2022-09-22T00:32:50.763Z,5.1
2022-09-22T00:34:50.445Z,5.1
2022-09-22T00:36:50.660Z,5.1
2022-09-22T00:38:50.515Z,5.1
2022-09-22T00:40:50.359Z,5.1
2022-09-22T00:42:50.331Z,5.0
2022-09-22T00:44:49.939Z,5.0
2022-09-22T00:46:50.188Z,5.0
2022-09-22T00:48:50.167Z,5.0
2022-09-22T00:50:50.839Z,4.9
2022-09-22T00:52:50.520Z,4.9
2022-09-22T00:54:50.289Z,4.9
2022-09-22T00:56:50.429Z,4.9
2022-09-22T00:58:50.268Z,4.9
2022-09-22T01:00:50.361Z,4.9
2022-09-22T01:02:50.218Z,4.9
2022-09-22T01:04:50.349Z,4.9
2022-09-22T01:06:50.342Z,4.9
2022-09-22T01:08:50.193Z,4.8
2022-09-22T01:10:49.978Z,4.8
2022-09-22T01:12:49.944Z,4.8
2022-09-22T01:14:50.725Z,4.8
2022-09-22T01:16:50.708Z,4.8
2022-09-22T01:18:50.508Z,4.7
2022-09-22T01:20:50.184Z,4.7
2022-09-22T01:22:49.977Z,4.7
2022-09-22T01:24:50.711Z,4.6
2022-09-22T01:26:50.902Z,4.6
2022-09-22T01:28:50.856Z,4.6
2022-09-22T01:30:50.668Z,4.5
2022-09-22T01:32:50.388Z,4.5
2022-09-22T01:34:50.714Z,4.5
2022-09-22T01:36:50.784Z,4.5
2022-09-22T01:38:50.650Z,4.4
2022-09-22T01:40:50.483Z,4.4
2022-09-22T01:42:50.142Z,4.4
2022-09-22T01:44:50.010Z,4.4
2022-09-22T01:46:50.392Z,4.4
2022-09-22T01:48:50.329Z,4.4
2022-09-22T01:50:50.121Z,4.4
2022-09-22T01:52:49.994Z,4.3
2022-09-22T01:54:49.956Z,4.3
2022-09-22T01:56:50.161Z,4.2
2022-09-22T01:58:50.156Z,4.2
2022-09-22T02:00:50.885Z,4.2
2022-09-22T02:02:51.382Z,4.2
2022-09-22T02:04:50.915Z,4.1
2022-09-22T02:06:50.331Z,4.1
2022-09-22T02:08:50.559Z,4.1
2022-09-22T02:10:50.379Z,4.1
2022-09-22T02:12:50.151Z,4.0
2022-09-22T02:14:50.149Z,4.0
2022-09-22T02:16:50.288Z,4.0
2022-09-22T02:18:50.184Z,4.0
2022-09-22T02:20:50.187Z,3.9
2022-09-22T02:22:49.906Z,3.9
2022-09-22T02:24:50.850Z,3.9
2022-09-22T02:26:50.912Z,3.9
2022-09-22T02:28:50.913Z,3.8
2022-09-22T02:31:20.858Z,3.8
2022-09-22T02:32:50.240Z,3.8
2022-09-22T02:34:50.491Z,3.8
2022-09-22T02:36:50.461Z,3.8
2022-09-22T02:38:50.259Z,3.8
2022-09-22T02:40:50.115Z,3.8
2022-09-22T02:42:50.071Z,3.8
2022-09-22T02:44:49.888Z,3.8
2022-09-22T02:46:50.325Z,3.8
2022-09-22T02:48:50.177Z,3.8
2022-09-22T02:50:50.300Z,3.8
2022-09-22T02:52:50.073Z,3.8
2022-09-22T02:54:49.942Z,3.7
2022-09-22T02:56:49.968Z,3.7
2022-09-22T02:58:58.992Z,3.7
2022-09-22T03:00:49.942Z,3.7
2022-09-22T03:02:50.756Z,3.7
2022-09-22T03:04:50.512Z,3.7
2022-09-22T03:06:49.937Z,3.7
2022-09-22T03:08:50.667Z,3.7
2022-09-22T03:10:50.437Z,3.6
2022-09-22T03:13:17.475Z,3.6
2022-09-22T03:14:50.778Z,3.6
2022-09-22T03:16:50.827Z,3.6
2022-09-22T03:18:50.478Z,3.6
2022-09-22T03:20:50.334Z,3.5
2022-09-22T03:22:50.180Z,3.5
2022-09-22T03:24:49.960Z,3.4
2022-09-22T03:26:50.060Z,3.4
2022-09-22T03:28:50.800Z,3.4
2022-09-22T03:30:51.134Z,3.3
2022-09-22T03:32:49.969Z,3.3
2022-09-22T03:34:50.404Z,3.3
2022-09-22T03:36:50.484Z,3.3
2022-09-22T03:38:50.136Z,3.3
2022-09-22T03:40:50.150Z,3.3
2022-09-22T03:42:50.041Z,3.3
2022-09-22T03:44:50.797Z,3.3
2022-09-22T03:46:50.892Z,3.3
2022-09-22T03:48:49.966Z,3.3
2022-09-22T03:50:50.889Z,3.2
2022-09-22T03:52:50.751Z,3.2
2022-09-22T03:54:50.511Z,3.2
2022-09-22T03:56:50.560Z,3.1
2022-09-22T03:58:50.387Z,3.1
2022-09-22T04:00:50.157Z,3.1
2022-09-22T04:02:50.274Z,3.1
2022-09-22T04:04:50.781Z,3.1
2022-09-22T04:06:50.014Z,3.1
2022-09-22T04:08:50.624Z,3.1
2022-09-22T04:10:50.356Z,3.1
2022-09-22T04:12:49.990Z,3.1
2022-09-22T04:14:50.851Z,3.1
2022-09-22T04:16:50.168Z,3.1
2022-09-22T04:18:50.090Z,3.1
2022-09-22T04:20:50.718Z,3.1
2022-09-22T04:22:50.576Z,3.1
2022-09-22T04:24:50.447Z,3.0
2022-09-22T04:27:21.039Z,3.0
2022-09-22T04:28:50.457Z,3.0
2022-09-22T04:30:50.529Z,2.9
2022-09-22T04:32:50.464Z,2.9
2022-09-22T04:34:50.737Z,2.9
2022-09-22T04:36:50.825Z,2.9
2022-09-22T04:38:50.594Z,2.9
2022-09-22T04:40:50.452Z,2.8
2022-09-22T04:42:50.272Z,2.8
2022-09-22T04:44:50.021Z,2.8
2022-09-22T04:46:50.228Z,2.8
2022-09-22T04:48:49.960Z,2.8
2022-09-22T04:50:50.742Z,2.8
2022-09-22T04:52:50.656Z,2.8
2022-09-22T04:54:50.321Z,2.8
2022-09-22T04:56:50.344Z,2.8
2022-09-22T04:58:49.938Z,2.8
2022-09-22T05:00:50.952Z,2.8
2022-09-22T05:02:50.323Z,2.8
2022-09-22T05:04:50.835Z,2.8
2022-09-22T05:06:49.987Z,2.8
2022-09-22T05:08:50.766Z,2.8
2022-09-22T05:10:50.805Z,2.8
2022-09-22T05:12:50.672Z,2.9
2022-09-22T05:14:50.532Z,2.9
2022-09-22T05:16:50.816Z,2.9
2022-09-22T05:18:50.785Z,2.9
2022-09-22T05:20:50.753Z,2.9
2022-09-22T05:22:50.639Z,3.0
2022-09-22T05:24:50.624Z,3.0
2022-09-22T05:26:50.879Z,3.0
2022-09-22T05:28:50.681Z,3.1
2022-09-22T05:30:50.504Z,3.1
2022-09-22T05:32:50.295Z,3.1
2022-09-22T05:34:50.438Z,3.1
2022-09-22T05:36:50.582Z,3.1
2022-09-22T05:38:50.498Z,3.1
2022-09-22T05:40:50.425Z,3.2
2022-09-22T05:42:50.210Z,3.2
2022-09-22T05:44:50.071Z,3.2
2022-09-22T05:46:50.323Z,3.2
2022-09-22T05:48:50.465Z,3.2
2022-09-22T05:50:50.260Z,3.3
2022-09-22T05:52:50.000Z,3.3
2022-09-22T05:54:49.893Z,3.3
2022-09-22T05:56:49.985Z,3.3
2022-09-22T05:58:50.747Z,3.3
2022-09-22T06:00:50.606Z,3.4
2022-09-22T06:02:50.978Z,3.5
2022-09-22T06:04:50.616Z,3.6
2022-09-22T06:06:50.792Z,3.6
2022-09-22T06:08:50.593Z,3.6
2022-09-22T06:10:50.336Z,3.6
2022-09-22T06:12:50.188Z,3.6
2022-09-22T06:14:49.960Z,3.7
2022-09-22T06:16:50.317Z,3.7
2022-09-22T06:18:50.137Z,3.7
2022-09-22T06:20:50.008Z,3.8
2022-09-22T06:22:49.933Z,3.8
2022-09-22T06:24:50.802Z,3.9
2022-09-22T06:26:50.116Z,4.0
2022-09-22T06:28:49.990Z,4.0
2022-09-22T06:30:50.720Z,4.0
2022-09-22T06:32:50.504Z,4.0
2022-09-22T06:34:50.720Z,4.0
2022-09-22T06:36:50.865Z,4.0
2022-09-22T06:38:50.666Z,4.0
2022-09-22T06:40:50.642Z,4.1
2022-09-22T06:42:49.952Z,4.1
2022-09-22T06:44:50.878Z,4.1
2022-09-22T06:46:50.074Z,4.2
2022-09-22T06:48:50.858Z,4.3
2022-09-22T06:50:50.514Z,4.4
2022-09-22T06:52:50.558Z,4.4
2022-09-22T06:54:54.267Z,4.4
2022-09-22T06:56:50.470Z,4.4
2022-09-22T06:59:11.303Z,4.6
2022-09-22T07:00:51.334Z,4.7
2022-09-22T07:02:50.573Z,4.7
2022-09-22T07:04:50.007Z,4.7
2022-09-22T07:06:50.095Z,4.8
2022-09-22T07:08:50.825Z,4.9
2022-09-22T07:10:50.677Z,5.0
2022-09-22T07:12:50.525Z,5.0
2022-09-22T07:14:50.597Z,5.1
2022-09-22T07:16:50.679Z,5.3
2022-09-22T07:18:50.439Z,5.3
2022-09-22T07:20:50.441Z,5.4
2022-09-22T07:22:50.411Z,5.4
2022-09-22T07:24:50.745Z,5.6
2022-09-22T07:26:50.876Z,5.7
2022-09-22T07:28:50.651Z,5.7
2022-09-22T07:30:50.485Z,5.8
2022-09-22T07:32:50.429Z,5.9
2022-09-22T07:34:50.688Z,6.0
2022-09-22T07:36:51.751Z,6.2
2022-09-22T07:38:50.684Z,6.3
2022-09-22T07:40:50.785Z,6.3
2022-09-22T07:42:50.823Z,6.4
2022-09-22T07:44:50.829Z,6.5
2022-09-22T07:46:51.082Z,6.7
2022-09-22T07:48:50.164Z,6.7
2022-09-22T07:50:49.943Z,6.7
2022-09-22T07:52:50.868Z,6.9
2022-09-22T07:54:50.690Z,7.0
2022-09-22T07:56:50.798Z,7.1
2022-09-22T07:58:50.074Z,7.1
2022-09-22T08:00:51.052Z,7.1
2022-09-22T08:02:50.152Z,7.2
2022-09-22T08:04:50.514Z,7.3
2022-09-22T08:06:50.468Z,7.4
2022-09-22T08:08:50.269Z,7.6
2022-09-22T08:10:50.056Z,7.6
2022-09-22T08:12:50.012Z,7.7
2022-09-22T08:14:50.679Z,7.8
2022-09-22T08:16:50.779Z,7.9
2022-09-22T08:18:50.622Z,7.9
2022-09-22T08:20:50.351Z,8.0
2022-09-22T08:22:50.315Z,8.0
2022-09-22T08:24:50.112Z,8.2
2022-09-22T08:26:50.508Z,8.3
2022-09-22T08:28:50.491Z,8.4
2022-09-22T08:30:50.418Z,8.4
2022-09-22T08:32:50.516Z,8.5
2022-09-22T08:34:50.829Z,8.6
2022-09-22T08:36:50.246Z,8.8
2022-09-22T08:38:50.225Z,8.8
2022-09-22T08:40:50.660Z,8.9
2022-09-22T08:42:50.713Z,9.0
2022-09-22T08:44:50.568Z,9.1
2022-09-22T08:46:51.034Z,9.1
2022-09-22T08:48:50.051Z,9.2
2022-09-22T08:50:50.729Z,9.3
2022-09-22T08:52:50.405Z,9.3
2022-09-22T08:54:50.363Z,9.4
2022-09-22T08:56:50.480Z,9.4
2022-09-22T08:58:50.300Z,9.6
2022-09-22T09:00:50.053Z,9.7
2022-09-22T09:02:51.038Z,9.8
2022-09-22T09:04:50.689Z,10.0
2022-09-22T09:06:50.531Z,10.0
2022-09-22T09:08:50.504Z,10.0
2022-09-22T09:10:50.381Z,10.1
2022-09-22T09:12:50.156Z,10.2
2022-09-22T09:14:50.904Z,10.4
2022-09-22T09:16:50.067Z,10.4
2022-09-22T09:18:50.035Z,10.4
2022-09-22T09:20:50.779Z,10.6
2022-09-22T09:22:50.633Z,10.6
2022-09-22T09:25:24.493Z,10.8
2022-09-22T09:26:50.170Z,10.8
2022-09-22T09:28:50.143Z,10.9
2022-09-22T09:30:50.333Z,11.0
2022-09-22T09:32:50.244Z,11.1
2022-09-22T09:34:56.454Z,11.2
2022-09-22T09:38:50.807Z,11.4
2022-09-22T09:40:50.712Z,11.5
2022-09-22T09:42:50.579Z,11.5
2022-09-22T09:44:50.620Z,11.5
2022-09-22T09:46:49.960Z,11.6
2022-09-22T09:48:50.740Z,11.8
2022-09-22T09:50:50.888Z,11.9
2022-09-22T09:52:50.816Z,11.9
2022-09-22T09:54:50.512Z,12.0
2022-09-22T09:56:50.613Z,12.1
2022-09-22T09:58:50.267Z,12.2
2022-09-22T10:00:50.168Z,12.2
2022-09-22T10:02:50.031Z,12.3
2022-09-22T10:04:50.293Z,12.4
2022-09-22T10:06:50.561Z,12.6
2022-09-22T10:08:50.298Z,12.6
2022-09-22T10:10:50.092Z,12.7
2022-09-22T10:12:50.002Z,12.7
2022-09-22T10:14:50.770Z,12.8
2022-09-22T10:16:50.150Z,13.0
2022-09-22T10:18:50.052Z,13.0
2022-09-22T10:20:50.862Z,13.1
2022-09-22T10:22:50.724Z,13.1
2022-09-22T10:24:50.683Z,13.2
2022-09-22T10:26:50.035Z,13.3
2022-09-22T10:28:50.016Z,13.3
2022-09-22T10:30:50.135Z,13.4
2022-09-22T10:32:50.338Z,13.4
2022-09-22T10:34:50.825Z,13.6
2022-09-22T10:36:50.109Z,13.7
2022-09-22T10:38:50.007Z,13.7
2022-09-22T10:40:50.686Z,13.8
2022-09-22T10:42:50.651Z,14.0
2022-09-22T10:44:50.453Z,14.1
2022-09-22T10:46:50.725Z,14.2
2022-09-22T10:48:50.663Z,14.2
2022-09-22T10:50:50.501Z,14.3
2022-09-22T10:52:50.417Z,14.4
2022-09-22T10:54:50.382Z,14.4
2022-09-22T10:56:50.641Z,14.5
2022-09-22T10:58:50.782Z,14.6
2022-09-22T11:00:50.514Z,14.6
2022-09-22T11:02:50.333Z,14.6
2022-09-22T11:04:51.028Z,14.6
2022-09-22T11:06:50.222Z,14.7
2022-09-22T11:08:50.055Z,14.7
2022-09-22T11:10:50.065Z,14.7
2022-09-22T11:12:50.903Z,14.7
2022-09-22T11:14:50.828Z,14.7
2022-09-22T11:16:49.985Z,14.8
2022-09-22T11:18:50.825Z,14.8
2022-09-22T11:20:50.781Z,14.7
2022-09-22T11:22:50.525Z,14.8
2022-09-22T11:24:50.173Z,14.8
2022-09-22T11:26:50.591Z,14.8
2022-09-22T11:28:57.752Z,14.8
2022-09-22T11:30:50.992Z,14.7
2022-09-22T11:32:50.859Z,14.7
2022-09-22T11:34:50.024Z,14.6
2022-09-22T11:36:52.251Z,14.6
2022-09-22T11:38:50.210Z,14.6
2022-09-22T11:40:50.498Z,14.6
2022-09-22T11:42:50.557Z,14.6
2022-09-22T11:44:50.179Z,14.6
2022-09-22T11:46:50.238Z,14.6
2022-09-22T11:48:50.874Z,14.6
2022-09-22T11:50:50.744Z,14.6
2022-09-22T11:52:50.689Z,14.6
2022-09-22T11:54:50.497Z,14.6
2022-09-22T11:56:50.749Z,14.6
2022-09-22T11:58:50.497Z,14.8
2022-09-22T12:00:50.277Z,14.8
2022-09-22T12:02:50.665Z,14.9
2022-09-22T12:04:50.297Z,14.9
2022-09-22T12:06:50.455Z,15.0
2022-09-22T12:08:50.521Z,15.1
2022-09-22T12:10:50.513Z,15.2
2022-09-22T12:12:50.402Z,15.4
2022-09-22T12:14:50.219Z,15.4
2022-09-22T12:16:50.580Z,15.4
2022-09-22T12:18:50.506Z,15.5
2022-09-22T12:20:50.546Z,15.6
2022-09-22T12:22:50.368Z,15.7
2022-09-22T12:24:50.021Z,15.8
2022-09-22T12:26:50.388Z,15.8
2022-09-22T12:28:50.235Z,15.8
2022-09-22T12:30:50.533Z,15.9
2022-09-22T12:32:50.484Z,16.0
2022-09-22T12:34:50.641Z,16.1
2022-09-22T12:36:50.857Z,16.1
2022-09-22T12:38:49.912Z,16.2
2022-09-22T12:40:50.776Z,16.1
2022-09-22T12:42:50.557Z,16.1
2022-09-22T12:44:50.599Z,16.1
2022-09-22T12:46:49.959Z,16.0
2022-09-22T12:48:50.827Z,15.9
2022-09-22T12:50:50.876Z,15.9
2022-09-22T12:52:50.709Z,15.9
2022-09-22T12:54:50.619Z,15.9
2022-09-22T12:56:50.923Z,15.8
2022-09-22T12:58:50.832Z,15.9
2022-09-22T13:00:51.154Z,15.9
2022-09-22T13:02:50.240Z,15.8
2022-09-22T13:04:50.689Z,15.8
2022-09-22T13:06:50.760Z,15.8
2022-09-22T13:08:50.652Z,15.8
2022-09-22T13:10:50.561Z,15.8
2022-09-22T13:12:50.359Z,15.8
2022-09-22T13:14:50.287Z,15.8
2022-09-22T13:16:50.321Z,15.9
2022-09-22T13:18:50.196Z,16.0
2022-09-22T13:20:49.965Z,16.0
2022-09-22T13:22:50.776Z,16.2
2022-09-22T13:24:50.746Z,16.2
2022-09-22T13:26:50.813Z,16.3
2022-09-22T13:28:50.732Z,16.3
2022-09-22T13:30:50.688Z,16.5
2022-09-22T13:32:50.606Z,16.6
2022-09-22T13:34:49.962Z,16.7
2022-09-22T13:36:49.940Z,16.9
2022-09-22T13:38:50.681Z,16.9
2022-09-22T13:40:51.073Z,17.1
2022-09-22T13:42:50.093Z,17.2
2022-09-22T13:44:50.107Z,17.3
2022-09-22T13:46:50.187Z,17.3
2022-09-22T13:48:50.165Z,17.3
2022-09-22T13:50:50.034Z,17.4
2022-09-22T13:52:50.883Z,17.4
2022-09-22T13:54:50.764Z,17.4
2022-09-22T13:56:49.958Z,17.5
2022-09-22T13:58:50.834Z,17.6
2022-09-22T14:01:14.596Z,17.6
2022-09-22T14:02:51.066Z,17.6
2022-09-22T14:04:50.611Z,17.5
2022-09-22T14:06:50.751Z,17.5
2022-09-22T14:08:50.597Z,17.4
2022-09-22T14:10:50.499Z,17.4
2022-09-22T14:12:50.409Z,17.4
2022-09-22T14:14:50.162Z,17.3
2022-09-22T14:16:50.606Z,17.3
2022-09-22T14:18:50.697Z,17.3
2022-09-22T14:20:50.429Z,17.3
2022-09-22T14:22:50.250Z,17.3
2022-09-22T14:24:50.955Z,17.3
2022-09-22T14:26:50.317Z,17.3
2022-09-22T14:28:50.260Z,17.4
2022-09-22T14:30:50.931Z,17.4
2022-09-22T14:32:50.847Z,17.4
2022-09-22T14:34:50.362Z,17.4
2022-09-22T14:36:50.294Z,17.4
2022-09-22T14:39:10.884Z,17.4
2022-09-22T14:40:50.937Z,17.5
2022-09-22T14:42:50.933Z,17.5
2022-09-22T14:44:50.886Z,17.5
2022-09-22T14:46:50.123Z,17.5
2022-09-22T14:48:50.131Z,17.5
2022-09-22T14:50:50.000Z,17.5
2022-09-22T14:52:49.984Z,17.5
2022-09-22T14:54:50.858Z,17.5
2022-09-22T14:56:50.796Z,17.5
2022-09-22T14:58:50.677Z,17.5
2022-09-22T15:00:50.786Z,17.5
2022-09-22T15:02:50.675Z,17.4
2022-09-22T15:04:49.930Z,17.4
2022-09-22T15:06:49.744Z,17.5
2022-09-22T15:08:50.682Z,17.5
2022-09-22T15:10:50.482Z,17.5
2022-09-22T15:12:50.450Z,17.5
2022-09-22T15:14:50.258Z,17.5
2022-09-22T15:16:50.409Z,17.5
2022-09-22T15:18:50.424Z,17.5
2022-09-22T15:20:50.163Z,17.5
2022-09-22T15:22:50.110Z,17.5
2022-09-22T15:24:49.882Z,17.5
2022-09-22T15:26:50.042Z,17.5
2022-09-22T15:28:49.963Z,17.5
2022-09-22T15:30:49.869Z,17.4
2022-09-22T15:32:49.835Z,17.4
2022-09-22T15:34:50.349Z,17.3
2022-09-22T15:36:50.622Z,17.3
2022-09-22T15:38:50.470Z,17.3
2022-09-22T15:40:50.396Z,17.2
2022-09-22T15:43:13.642Z,17.2
2022-09-22T15:44:50.769Z,17.1
2022-09-22T15:46:49.972Z,17.1
2022-09-22T15:48:50.842Z,17.0
2022-09-22T15:50:50.771Z,17.0
2022-09-22T15:52:50.540Z,17.0
2022-09-22T15:54:50.354Z,16.9
2022-09-22T15:56:50.424Z,16.9
2022-09-22T15:58:50.263Z,16.9
2022-09-22T16:00:50.438Z,16.9
2022-09-22T16:02:50.676Z,16.8
2022-09-22T16:04:49.927Z,16.7
2022-09-22T16:06:50.748Z,16.7
2022-09-22T16:08:50.745Z,16.6
2022-09-22T16:10:50.545Z,16.6
2022-09-22T16:12:50.337Z,16.6
2022-09-22T16:14:50.276Z,16.5
2022-09-22T16:16:50.488Z,16.5
2022-09-22T16:18:50.370Z,16.4
2022-09-22T16:20:50.165Z,16.4
2022-09-22T16:22:49.937Z,16.3
2022-09-22T16:24:49.927Z,16.2
2022-09-22T16:26:50.021Z,16.2
2022-09-22T16:28:50.815Z,16.2
2022-09-22T16:30:50.654Z,16.2
2022-09-22T16:32:50.450Z,16.1
2022-09-22T16:34:50.661Z,16.0
2022-09-22T16:36:50.853Z,16.0
2022-09-22T16:38:50.583Z,16.0
2022-09-22T16:40:50.513Z,15.9
2022-09-22T16:42:50.408Z,15.8
2022-09-22T16:44:50.575Z,15.8
2022-09-22T16:46:50.245Z,15.7
2022-09-22T16:48:50.113Z,15.7
2022-09-22T16:50:50.128Z,15.6
2022-09-22T16:52:49.969Z,15.5
2022-09-22T16:54:49.994Z,15.4
2022-09-22T16:56:50.281Z,15.4
2022-09-22T16:58:50.188Z,15.2
2022-09-22T17:00:50.293Z,15.2
2022-09-22T17:02:50.223Z,15.1
2022-09-22T17:04:50.622Z,15.0
2022-09-22T17:06:50.755Z,14.9
2022-09-22T17:08:50.763Z,14.8
2022-09-22T17:10:50.617Z,14.8
2022-09-22T17:12:50.597Z,14.7
2022-09-22T17:14:50.400Z,14.6
2022-09-22T17:16:50.618Z,14.5
2022-09-22T17:18:50.471Z,14.5
2022-09-22T17:20:50.315Z,14.3
2022-09-22T17:22:50.222Z,14.2
2022-09-22T17:24:50.002Z,14.1
2022-09-22T17:26:50.002Z,14.1
2022-09-22T17:28:50.879Z,13.9
2022-09-22T17:30:50.848Z,13.8
2022-09-22T17:32:50.703Z,13.7
2022-09-22T17:34:50.046Z,13.6
2022-09-22T17:36:50.134Z,13.6
2022-09-22T17:38:50.034Z,13.4
2022-09-22T17:40:51.250Z,13.3
2022-09-22T17:42:49.997Z,13.1
2022-09-22T17:44:50.748Z,13.1
2022-09-22T17:46:50.905Z,12.9
2022-09-22T17:48:50.725Z,12.8
2022-09-22T17:50:50.633Z,12.6
2022-09-22T17:52:50.409Z,12.6
2022-09-22T17:54:50.233Z,12.4
2022-09-22T17:56:50.313Z,12.4
2022-09-22T17:58:50.090Z,12.3
2022-09-22T18:00:50.912Z,12.2
2022-09-22T18:02:51.171Z,12.2
2022-09-22T18:04:50.476Z,12.2
2022-09-22T18:06:50.391Z,12.0
2022-09-22T18:08:50.153Z,11.9
2022-09-22T18:10:50.893Z,11.8
2022-09-22T18:12:50.656Z,11.8
2022-09-22T18:14:50.697Z,11.7
2022-09-22T18:16:50.886Z,11.5
2022-09-22T18:18:50.652Z,11.4
2022-09-22T18:20:50.543Z,11.4
2022-09-22T18:22:50.233Z,11.3
2022-09-22T18:24:50.103Z,11.3
2022-09-22T18:26:50.064Z,11.2
2022-09-22T18:28:50.762Z,11.0
2022-09-22T18:30:50.872Z,11.0
2022-09-22T18:32:50.815Z,10.9
2022-09-22T18:34:50.544Z,10.9
2022-09-22T18:36:50.737Z,10.8
2022-09-22T18:38:50.579Z,10.7
2022-09-22T18:40:50.938Z,10.6
2022-09-22T18:42:50.128Z,10.6
2022-09-22T18:44:50.042Z,10.5
2022-09-22T18:46:50.569Z,10.4
2022-09-22T18:48:50.504Z,10.3
2022-09-22T18:50:50.561Z,10.3
2022-09-22T18:52:50.368Z,10.3
2022-09-22T18:54:50.291Z,10.2
2022-09-22T18:56:50.556Z,10.2
2022-09-22T18:58:50.467Z,10.0
2022-09-22T19:00:50.476Z,10.0
2022-09-22T19:02:51.199Z,10.0
2022-09-22T19:04:50.672Z,9.9
2022-09-22T19:06:50.807Z,9.8
2022-09-22T19:08:50.814Z,9.8
2022-09-22T19:10:50.734Z,9.8
2022-09-22T19:12:50.710Z,9.7
2022-09-22T19:14:50.597Z,9.6
2022-09-22T19:16:50.620Z,9.6
2022-09-22T19:18:50.586Z,9.5
2022-09-22T19:20:50.618Z,9.5
2022-09-22T19:22:50.667Z,9.4
2022-09-22T19:24:50.309Z,9.3
2022-09-22T19:26:50.488Z,9.3
2022-09-22T19:28:50.523Z,9.2
2022-09-22T19:30:50.853Z,9.2
2022-09-22T19:32:50.870Z,9.1
2022-09-22T19:34:50.102Z,9.0
2022-09-22T19:36:50.380Z,9.0
2022-09-22T19:38:50.178Z,9.0
2022-09-22T19:40:50.366Z,8.9
2022-09-22T19:42:50.191Z,8.9
2022-09-22T19:44:49.923Z,8.9
2022-09-22T19:46:50.189Z,8.8
2022-09-22T19:48:50.274Z,8.8
2022-09-22T19:50:50.203Z,8.8
2022-09-22T19:52:49.921Z,8.7
2022-09-22T19:54:50.870Z,8.7
2022-09-22T19:56:50.920Z,8.7
2022-09-22T19:58:50.693Z,8.6
2022-09-22T20:00:50.578Z,8.6
2022-09-22T20:02:50.343Z,8.5
2022-09-22T20:04:50.819Z,8.5
2022-09-22T20:06:50.005Z,8.4
2022-09-22T20:08:56.299Z,8.4
2022-09-22T20:11:26.266Z,8.4
2022-09-22T20:12:50.894Z,8.4
2022-09-22T20:14:51.100Z,8.3
2022-09-22T20:16:50.131Z,8.3
2022-09-22T20:18:50.011Z,8.3
2022-09-22T20:20:51.573Z,8.2
2022-09-22T20:22:50.339Z,8.2
2022-09-22T20:24:50.181Z,8.2
2022-09-22T20:26:50.327Z,8.2
2022-09-22T20:28:50.035Z,8.1
2022-09-22T20:30:50.322Z,8.0
2022-09-22T20:32:50.358Z,8.0
2022-09-22T20:34:50.668Z,8.0
2022-09-22T20:36:50.024Z,8.0
2022-09-22T20:38:49.963Z,8.0
2022-09-22T20:40:50.707Z,7.9
2022-09-22T20:42:50.416Z,7.9
2022-09-22T20:44:50.265Z,7.9
2022-09-22T20:46:50.453Z,7.8
2022-09-22T20:48:50.745Z,7.8
2022-09-22T20:50:50.754Z,7.8
2022-09-22T20:52:50.636Z,7.8
2022-09-22T20:54:50.400Z,7.8
2022-09-22T20:56:50.737Z,7.8
2022-09-22T20:58:50.727Z,7.7
2022-09-22T21:00:50.471Z,7.7
2022-09-22T21:02:50.840Z,7.7
2022-09-22T21:04:50.307Z,7.6
2022-09-22T21:06:50.627Z,7.6
2022-09-22T21:08:50.581Z,7.6
2022-09-22T21:10:50.567Z,7.5
2022-09-22T21:12:50.366Z,7.5
2022-09-22T21:14:50.422Z,7.5
2022-09-22T21:16:49.938Z,7.5
2022-09-22T21:18:50.628Z,7.4
2022-09-22T21:20:50.713Z,7.4
2022-09-22T21:22:50.465Z,7.4
2022-09-22T21:24:50.355Z,7.4
2022-09-22T21:26:50.523Z,7.4
2022-09-22T21:28:50.339Z,7.3
2022-09-22T21:30:50.531Z,7.3
2022-09-22T21:32:50.587Z,7.2
2022-09-22T21:34:50.767Z,7.2
2022-09-22T21:36:50.827Z,7.1
2022-09-22T21:38:50.831Z,7.1
2022-09-22T21:40:51.085Z,7.1
2022-09-22T21:42:50.024Z,7.1
2022-09-22T21:44:50.909Z,7.0
2022-09-22T21:46:50.082Z,7.0
2022-09-22T21:48:49.957Z,6.9
2022-09-22T21:50:50.701Z,6.9
2022-09-22T21:52:50.389Z,6.9
2022-09-22T21:54:50.457Z,6.9
2022-09-22T21:56:50.719Z,6.8
2022-09-22T21:58:50.027Z,6.7
2022-09-22T22:00:52.716Z,6.7
2022-09-22T22:02:50.592Z,6.7
2022-09-22T22:04:50.035Z,6.7
2022-09-22T22:06:50.159Z,6.7
2022-09-22T22:08:50.175Z,6.6
2022-09-22T22:10:49.973Z,6.6
2022-09-22T22:12:50.773Z,6.6
2022-09-22T22:14:50.542Z,6.5
2022-09-22T22:16:50.034Z,6.5
2022-09-22T22:18:49.938Z,6.5
2022-09-22T22:20:50.745Z,6.5
2022-09-22T22:22:50.819Z,6.4
2022-09-22T22:24:50.747Z,6.4
2022-09-22T22:26:50.012Z,6.3
2022-09-22T22:28:50.810Z,6.3
2022-09-22T22:30:51.031Z,6.3
2022-09-22T22:32:50.192Z,6.3
2022-09-22T22:34:50.330Z,6.3
2022-09-22T22:36:50.435Z,6.3
2022-09-22T22:38:50.267Z,6.3
2022-09-22T22:40:50.425Z,6.3
2022-09-22T22:42:50.672Z,6.2
2022-09-22T22:44:50.523Z,6.2
2022-09-22T22:46:50.687Z,6.2
2022-09-22T22:48:50.576Z,6.2
2022-09-22T22:50:50.472Z,6.1
2022-09-22T22:52:50.603Z,6.1
2022-09-22T22:54:50.379Z,6.1
2022-09-22T22:56:52.043Z,6.1
2022-09-22T22:58:50.721Z,6.0
2022-09-22T23:00:50.733Z,6.0
2022-09-22T23:02:50.579Z,6.0
2022-09-22T23:04:51.021Z,6.0
2022-09-22T23:06:50.535Z,6.0
2022-09-22T23:08:50.648Z,6.0
2022-09-22T23:10:50.575Z,5.9
2022-09-22T23:12:50.320Z,5.9
2022-09-22T23:14:50.050Z,5.9
2022-09-22T23:16:50.140Z,5.9
2022-09-22T23:18:50.854Z,5.9
2022-09-22T23:20:50.652Z,5.9
2022-09-22T23:22:50.663Z,5.9
2022-09-22T23:24:50.516Z,5.8
2022-09-22T23:26:49.969Z,5.8
2022-09-22T23:28:50.876Z,5.8
2022-09-22T23:30:50.886Z,5.8
2022-09-22T23:32:49.908Z,5.8
2022-09-22T23:34:50.183Z,5.8
2022-09-22T23:36:50.315Z,5.8
2022-09-22T23:38:50.057Z,5.7
2022-09-22T23:40:50.393Z,5.7
2022-09-22T23:42:50.369Z,5.7
2022-09-22T23:44:50.382Z,5.7
2022-09-22T23:46:50.534Z,5.6
2022-09-22T23:48:50.149Z,5.6
2022-09-22T23:50:50.144Z,5.6
2022-09-22T23:52:50.087Z,5.6
2022-09-22T23:54:50.022Z,5.6
2022-09-22T23:56:50.241Z,5.6
2022-09-22T23:58:50.274Z,5.5
